Time;durP1;ratioP1;P1;durP2;ratioP2;P2;SDS_P1;SDS_P2;PMS_P1;PMS_P2;Temp;Humidity;BMP_temperature;BMP_pressure;BME280_temperature;BME280_humidity;BME280_pressure;Samples;Min_cycle;Max_cycle;Signal;HPM_P1;HPM_P2
2021/06/19 00:00:02;;;;;;;8.43;6.80;;;;;;;;;;3626047;39;20405;-79
2021/06/19 00:02:29;;;;;;;8.80;7.27;;;;;;;;;;3614786;39;20424;-80
2021/06/19 00:04:55;;;;;;;7.80;4.97;;;;;;;;;;3615712;39;20444;-80
2021/06/19 00:07:21;;;;;;;9.23;4.83;;;;;;;;;;3625891;39;20405;-80
2021/06/19 00:09:47;;;;;;;5.20;4.77;;;;;;;;;;3612132;39;20405;-79
2021/06/19 00:12:15;;;;;;;11.40;5.17;;;;;;;;;;3607803;39;20408;-80
2021/06/19 00:14:41;;;;;;;6.87;5.20;;;;;;;;;;3607222;39;20374;-79
2021/06/19 00:17:07;;;;;;;6.97;4.80;;;;;;;;;;3606222;39;20411;-80
2021/06/19 00:19:33;;;;;;;8.17;5.03;;;;;;;;;;3602493;39;20416;-80
2021/06/19 00:21:59;;;;;;;4.97;4.47;;;;;;;;;;3616608;39;20487;-80
2021/06/19 00:24:26;;;;;;;4.70;4.30;;;;;;;;;;3613167;39;20369;-80
2021/06/19 00:26:52;;;;;;;6.40;3.97;;;;;;;;;;3616788;39;20413;-80
2021/06/19 00:29:19;;;;;;;4.13;3.77;;;;;;;;;;3615133;39;20564;-79
2021/06/19 00:31:45;;;;;;;5.77;3.30;;;;;;;;;;3615980;39;20417;-80
2021/06/19 00:34:13;;;;;;;7.77;3.77;;;;;;;;;;3614274;39;20409;-80
2021/06/19 00:36:39;;;;;;;3.93;3.53;;;;;;;;;;3608596;39;20504;-80
2021/06/19 00:39:06;;;;;;;3.23;2.93;;;;;;;;;;3616459;39;20469;-80
2021/06/19 00:41:34;;;;;;;3.37;3.07;;;;;;;;;;3616579;39;20449;-80
2021/06/19 00:44:01;;;;;;;4.20;3.23;;;;;;;;;;3617341;39;20391;-80
2021/06/19 00:46:29;;;;;;;6.30;3.13;;;;;;;;;;3616406;39;20403;-80
2021/06/19 00:48:56;;;;;;;3.57;3.30;;;;;;;;;;3625872;39;20488;-80
2021/06/19 00:51:22;;;;;;;7.30;3.10;;;;;;;;;;3616224;39;20417;-80
2021/06/19 00:53:48;;;;;;;3.20;2.73;;;;;;;;;;3614376;39;20381;-80
2021/06/19 00:56:14;;;;;;;7.80;2.90;;;;;;;;;;3608149;39;20505;-80
2021/06/19 00:58:41;;;;;;;13.63;3.40;;;;;;;;;;3599214;39;20405;-80
2021/06/19 01:01:07;;;;;;;6.03;3.30;;;;;;;;;;3625573;39;20413;-81
2021/06/19 01:03:33;;;;;;;4.40;3.10;;;;;;;;;;3627500;39;20409;-80
2021/06/19 01:05:59;;;;;;;3.67;3.37;;;;;;;;;;3676820;22;20540;-76
2021/06/19 01:08:25;;;;;;;4.23;3.83;;;;;;;;;;3622403;39;20412;-76
2021/06/19 01:10:54;;;;;;;4.57;3.20;;;;;;;;;;3621139;39;20436;-76
2021/06/19 01:13:20;;;;;;;9.07;3.83;;;;;;;;;;3632374;39;20384;-76
2021/06/19 01:15:46;;;;;;;3.73;3.43;;;;;;;;;;3632540;39;20749;-76
2021/06/19 01:18:12;;;;;;;3.30;3.10;;;;;;;;;;3619771;39;20472;-76
2021/06/19 01:20:38;;;;;;;4.00;3.60;;;;;;;;;;3613232;39;20788;-75
2021/06/19 01:23:04;;;;;;;6.63;3.50;;;;;;;;;;3621836;39;20411;-76
2021/06/19 01:25:33;;;;;;;6.70;3.80;;;;;;;;;;3622122;39;20552;-76
2021/06/19 01:28:00;;;;;;;7.27;3.60;;;;;;;;;;3633082;39;20420;-76
2021/06/19 01:30:28;;;;;;;4.83;3.30;;;;;;;;;;3620128;39;20408;-76
2021/06/19 01:32:56;;;;;;;4.67;3.40;;;;;;;;;;3619246;39;20432;-76
2021/06/19 01:35:22;;;;;;;3.77;3.47;;;;;;;;;;3632902;39;20804;-75
2021/06/19 01:37:50;;;;;;;4.33;3.17;;;;;;;;;;3619748;39;20459;-76
2021/06/19 01:40:17;;;;;;;3.80;3.50;;;;;;;;;;3633283;39;20456;-76
2021/06/19 01:42:44;;;;;;;5.67;4.00;;;;;;;;;;3630883;39;20472;-76
2021/06/19 01:45:15;;;;;;;3.70;3.03;;;;;;;;;;3623187;39;20396;-76
2021/06/19 01:47:42;;;;;;;6.13;3.37;;;;;;;;;;3631361;39;20822;-76
2021/06/19 01:50:09;;;;;;;6.30;3.83;;;;;;;;;;3610366;39;20422;-76
2021/06/19 01:52:36;;;;;;;4.57;3.37;;;;;;;;;;3630440;39;20443;-76
2021/06/19 01:55:03;;;;;;;3.87;3.57;;;;;;;;;;3622842;39;20400;-76
2021/06/19 01:57:29;;;;;;;4.57;3.40;;;;;;;;;;3632193;39;20719;-76
2021/06/19 02:00:08;;;;;;;5.13;3.33;;;;;;;;;;3621229;39;20411;-76
2021/06/19 02:02:34;;;;;;;4.47;3.00;;;;;;;;;;3629226;39;20388;-76
2021/06/19 02:05:00;;;;;;;3.33;2.60;;;;;;;;;;3631401;39;20432;-76
2021/06/19 02:07:26;;;;;;;7.10;3.60;;;;;;;;;;3621736;39;20403;-76
2021/06/19 02:09:52;;;;;;;3.90;3.50;;;;;;;;;;3618441;39;20739;-77
2021/06/19 02:12:18;;;;;;;6.20;3.60;;;;;;;;;;3621773;39;20800;-76
2021/06/19 02:14:45;;;;;;;3.97;3.30;;;;;;;;;;3619572;39;20392;-76
2021/06/19 02:17:11;;;;;;;5.33;3.17;;;;;;;;;;3621291;39;20432;-76
2021/06/19 02:19:37;;;;;;;5.30;3.23;;;;;;;;;;3630328;39;20459;-76
2021/06/19 02:22:03;;;;;;;3.57;3.20;;;;;;;;;;3630848;39;20380;-76
2021/06/19 02:24:29;;;;;;;3.67;3.10;;;;;;;;;;3618826;39;20514;-75
2021/06/19 02:27:08;;;;;;;10.33;3.23;;;;;;;;;;3632104;39;21555;-76
2021/06/19 02:29:34;;;;;;;3.87;2.87;;;;;;;;;;3621493;39;21167;-76
2021/06/19 02:32:00;;;;;;;2.90;2.60;;;;;;;;;;3632949;39;20499;-76
2021/06/19 02:34:26;;;;;;;3.23;2.93;;;;;;;;;;3633344;39;20415;-76
2021/06/19 02:36:52;;;;;;;5.10;2.80;;;;;;;;;;3632708;39;21139;-76
2021/06/19 02:39:19;;;;;;;2.70;2.60;;;;;;;;;;3617682;39;20820;-76
2021/06/19 02:41:45;;;;;;;4.90;2.83;;;;;;;;;;3632763;39;20392;-76
2021/06/19 02:44:11;;;;;;;6.83;2.73;;;;;;;;;;3622809;39;20831;-76
2021/06/19 02:46:38;;;;;;;4.13;3.77;;;;;;;;;;3621791;39;20404;-76
2021/06/19 02:49:04;;;;;;;3.87;3.23;;;;;;;;;;3633088;39;20492;-76
2021/06/19 02:51:30;;;;;;;4.43;3.80;;;;;;;;;;3617979;39;20468;-76
2021/06/19 02:53:56;;;;;;;4.27;3.60;;;;;;;;;;3622811;39;20408;-76
2021/06/19 02:56:22;;;;;;;4.17;3.83;;;;;;;;;;3621870;39;20493;-76
2021/06/19 02:58:48;;;;;;;3.67;3.37;;;;;;;;;;3633062;39;20404;-76
2021/06/19 03:01:14;;;;;;;3.70;3.50;;;;;;;;;;3618291;39;20475;-76
2021/06/19 03:03:40;;;;;;;5.83;3.97;;;;;;;;;;3619660;39;20456;-75
2021/06/19 03:06:06;;;;;;;6.37;4.60;;;;;;;;;;3632409;39;20457;-75
2021/06/19 03:08:32;;;;;;;3.97;3.67;;;;;;;;;;3624354;39;20456;-76
2021/06/19 03:10:58;;;;;;;3.90;3.43;;;;;;;;;;3619888;39;20455;-76
2021/06/19 03:13:24;;;;;;;5.07;3.57;;;;;;;;;;3632260;39;20460;-76
2021/06/19 03:15:50;;;;;;;3.63;3.40;;;;;;;;;;3633098;39;20430;-76
2021/06/19 03:18:16;;;;;;;3.83;3.53;;;;;;;;;;3621710;39;20453;-76
2021/06/19 03:20:42;;;;;;;5.47;3.20;;;;;;;;;;3632053;39;20388;-76
2021/06/19 03:23:08;;;;;;;8.07;3.43;;;;;;;;;;3633479;39;20392;-76
2021/06/19 03:25:36;;;;;;;4.40;4.00;;;;;;;;;;3622905;39;20845;-76
2021/06/19 03:28:03;;;;;;;8.10;3.50;;;;;;;;;;3612731;39;20458;-76
2021/06/19 03:30:30;;;;;;;3.40;3.10;;;;;;;;;;3620245;39;20425;-77
2021/06/19 03:32:57;;;;;;;4.37;3.57;;;;;;;;;;3631234;39;20558;-76
2021/06/19 03:35:23;;;;;;;4.27;3.00;;;;;;;;;;3632063;39;20508;-76
2021/06/19 03:37:50;;;;;;;3.77;3.47;;;;;;;;;;3623607;39;20481;-76
2021/06/19 03:40:16;;;;;;;3.47;3.27;;;;;;;;;;3632008;39;20496;-76
2021/06/19 03:42:43;;;;;;;3.50;3.20;;;;;;;;;;3632949;39;20496;-76
2021/06/19 03:45:10;;;;;;;4.80;3.23;;;;;;;;;;3631795;39;20722;-76
2021/06/19 03:47:36;;;;;;;3.80;3.40;;;;;;;;;;3623335;39;20411;-76
2021/06/19 03:50:02;;;;;;;3.20;3.00;;;;;;;;;;3632500;39;20384;-76
2021/06/19 03:52:28;;;;;;;5.47;2.60;;;;;;;;;;3609908;39;20404;-76
2021/06/19 03:54:54;;;;;;;3.50;3.00;;;;;;;;;;3631431;39;20452;-76
2021/06/19 03:57:30;;;;;;;4.20;3.37;;;;;;;;;;3630385;39;20395;-76
2021/06/19 03:59:56;;;;;;;5.00;3.00;;;;;;;;;;3618926;39;20396;-76
2021/06/19 04:02:23;;;;;;;3.87;3.20;;;;;;;;;;3613908;39;20415;-76
2021/06/19 04:04:49;;;;;;;5.30;3.17;;;;;;;;;;3631165;39;20444;-76
2021/06/19 04:07:15;;;;;;;3.60;3.20;;;;;;;;;;3615712;39;20413;-76
2021/06/19 04:09:41;;;;;;;3.47;3.27;;;;;;;;;;3614615;39;20898;-77
2021/06/19 04:12:07;;;;;;;2.83;2.67;;;;;;;;;;3614086;39;20404;-76
2021/06/19 04:14:34;;;;;;;3.40;3.10;;;;;;;;;;3622318;39;20455;-76
2021/06/19 04:17:00;;;;;;;3.30;3.10;;;;;;;;;;3632754;39;20404;-76
2021/06/19 04:19:26;;;;;;;3.83;2.87;;;;;;;;;;3633151;39;20403;-76
2021/06/19 04:21:52;;;;;;;5.07;3.30;;;;;;;;;;3632303;39;20695;-76
2021/06/19 04:24:18;;;;;;;2.80;2.60;;;;;;;;;;3621948;39;20440;-76
2021/06/19 04:26:44;;;;;;;3.30;2.97;;;;;;;;;;3611401;39;20404;-76
2021/06/19 04:29:10;;;;;;;3.77;3.43;;;;;;;;;;3632139;39;20472;-76
2021/06/19 04:31:36;;;;;;;4.03;3.40;;;;;;;;;;3620717;39;20494;-76
2021/06/19 04:34:02;;;;;;;3.53;2.50;;;;;;;;;;3631989;39;20431;-76
2021/06/19 04:36:28;;;;;;;2.60;2.40;;;;;;;;;;3623332;39;20408;-76
2021/06/19 04:38:54;;;;;;;2.73;2.53;;;;;;;;;;3623696;39;20479;-76
2021/06/19 04:41:43;;;;;;;2.40;2.30;;;;;;;;;;3632254;39;20452;-76
2021/06/19 04:46:50;;;;;;;4.63;2.50;;;;;;;;;;3632802;39;20399;-76
2021/06/19 04:49:18;;;;;;;3.00;2.80;;;;;;;;;;3632604;39;20391;-76
2021/06/19 04:51:44;;;;;;;3.60;2.90;;;;;;;;;;3612365;39;20400;-76
2021/06/19 04:54:10;;;;;;;3.20;2.70;;;;;;;;;;3622741;39;20431;-76
2021/06/19 04:56:38;;;;;;;2.83;2.63;;;;;;;;;;3623497;39;21161;-76
2021/06/19 04:59:04;;;;;;;2.97;2.70;;;;;;;;;;3620846;39;20404;-77
2021/06/19 05:01:30;;;;;;;3.10;2.50;;;;;;;;;;3629884;39;20973;-77
2021/06/19 05:03:56;;;;;;;2.87;2.57;;;;;;;;;;3631425;39;20843;-77
2021/06/19 05:06:22;;;;;;;2.47;2.27;;;;;;;;;;3621235;39;20413;-77
2021/06/19 05:08:48;;;;;;;3.27;2.60;;;;;;;;;;3622739;39;20421;-77
2021/06/19 05:11:15;;;;;;;2.27;2.17;;;;;;;;;;3621652;39;20407;-77
2021/06/19 05:13:41;;;;;;;4.17;2.20;;;;;;;;;;3622816;39;20952;-79
2021/06/19 05:16:07;;;;;;;2.50;2.30;;;;;;;;;;3622902;39;20405;-77
2021/06/19 05:18:33;;;;;;;2.30;2.20;;;;;;;;;;3618348;39;20562;-77
2021/06/19 05:20:59;;;;;;;2.53;2.43;;;;;;;;;;3621337;39;20413;-77
2021/06/19 05:23:25;;;;;;;4.17;2.67;;;;;;;;;;3622373;39;20393;-77
2021/06/19 05:25:51;;;;;;;3.97;3.10;;;;;;;;;;3607949;39;21142;-77
2021/06/19 05:28:17;;;;;;;2.63;2.53;;;;;;;;;;3623461;39;20396;-77
2021/06/19 05:30:43;;;;;;;2.87;2.67;;;;;;;;;;3610264;39;20404;-77
2021/06/19 05:33:09;;;;;;;4.27;2.60;;;;;;;;;;3620649;39;20866;-77
2021/06/19 05:35:35;;;;;;;2.70;2.33;;;;;;;;;;3619767;39;20408;-77
2021/06/19 05:38:01;;;;;;;2.87;2.67;;;;;;;;;;3622187;39;20370;-77
2021/06/19 05:40:27;;;;;;;3.43;2.53;;;;;;;;;;3611830;39;20405;-77
2021/06/19 05:42:53;;;;;;;3.03;2.83;;;;;;;;;;3621224;39;21284;-77
2021/06/19 05:45:20;;;;;;;2.60;2.40;;;;;;;;;;3619498;39;20393;-77
2021/06/19 05:47:46;;;;;;;3.60;2.30;;;;;;;;;;3620693;39;20526;-78
2021/06/19 05:50:13;;;;;;;2.77;2.57;;;;;;;;;;3621676;39;20798;-77
2021/06/19 05:52:41;;;;;;;3.60;2.33;;;;;;;;;;3623230;39;20401;-77
2021/06/19 05:55:07;;;;;;;2.30;2.20;;;;;;;;;;3616409;39;20497;-77
2021/06/19 05:57:33;;;;;;;2.50;2.30;;;;;;;;;;3621760;39;20439;-77
2021/06/19 06:00:00;;;;;;;3.90;2.50;;;;;;;;;;3620640;39;20436;-77
2021/06/19 06:02:26;;;;;;;2.13;2.03;;;;;;;;;;3622214;39;20428;-77
2021/06/19 06:04:52;;;;;;;2.70;2.50;;;;;;;;;;3606109;39;20454;-77
2021/06/19 06:07:18;;;;;;;2.23;2.03;;;;;;;;;;3607336;39;20385;-77
2021/06/19 06:09:44;;;;;;;2.73;2.53;;;;;;;;;;3607065;39;20550;-77
2021/06/19 06:12:11;;;;;;;2.87;2.43;;;;;;;;;;3607066;39;20438;-77
2021/06/19 06:14:37;;;;;;;2.43;2.23;;;;;;;;;;3612260;39;20449;-77
2021/06/19 06:17:04;;;;;;;2.17;2.07;;;;;;;;;;3611645;39;20394;-77
2021/06/19 06:19:30;;;;;;;2.20;2.00;;;;;;;;;;3610852;39;20448;-77
2021/06/19 06:21:56;;;;;;;2.47;2.00;;;;;;;;;;3606610;39;20754;-77
2021/06/19 06:24:22;;;;;;;2.33;1.90;;;;;;;;;;3599602;39;20690;-78
2021/06/19 06:26:48;;;;;;;3.30;2.17;;;;;;;;;;3610146;39;20406;-77
2021/06/19 06:29:14;;;;;;;2.67;2.47;;;;;;;;;;3610315;39;20409;-77
2021/06/19 06:31:40;;;;;;;2.50;2.30;;;;;;;;;;3600649;39;20394;-77
2021/06/19 06:34:06;;;;;;;2.27;2.07;;;;;;;;;;3609333;39;20441;-77
2021/06/19 06:36:32;;;;;;;2.43;2.23;;;;;;;;;;3610658;39;20810;-78
2021/06/19 06:39:03;;;;;;;2.50;2.30;;;;;;;;;;3611198;39;20416;-78
2021/06/19 06:41:29;;;;;;;3.17;1.90;;;;;;;;;;3601351;39;20483;-78
2021/06/19 06:43:55;;;;;;;1.90;1.80;;;;;;;;;;3607767;39;20927;-78
2021/06/19 06:46:21;;;;;;;2.60;2.40;;;;;;;;;;3605981;39;21081;-78
2021/06/19 06:48:48;;;;;;;2.83;2.60;;;;;;;;;;3610085;39;20414;-78
2021/06/19 06:51:14;;;;;;;2.50;1.97;;;;;;;;;;3607131;39;20394;-78
2021/06/19 06:53:40;;;;;;;2.77;2.37;;;;;;;;;;3609314;39;20418;-78
2021/06/19 06:56:07;;;;;;;4.90;2.60;;;;;;;;;;3607711;39;20456;-78
2021/06/19 06:58:33;;;;;;;5.20;2.47;;;;;;;;;;3591845;39;20405;-77
2021/06/19 07:01:00;;;;;;;2.70;2.53;;;;;;;;;;3599274;39;20810;-78
2021/06/19 07:03:26;;;;;;;2.60;2.40;;;;;;;;;;3617915;39;20455;-78
2021/06/19 07:05:52;;;;;;;2.93;2.73;;;;;;;;;;3604729;39;20441;-78
2021/06/19 07:08:18;;;;;;;3.27;2.97;;;;;;;;;;3606282;39;20402;-78
2021/06/19 07:10:44;;;;;;;2.43;2.23;;;;;;;;;;3607065;39;20453;-78
2021/06/19 07:13:11;;;;;;;3.97;2.43;;;;;;;;;;3607450;39;20535;-78
2021/06/19 07:15:37;;;;;;;2.60;2.40;;;;;;;;;;3606499;39;20893;-76
2021/06/19 07:18:04;;;;;;;2.63;2.43;;;;;;;;;;3596790;39;20809;-77
2021/06/19 07:20:30;;;;;;;2.83;2.63;;;;;;;;;;3597138;39;20404;-77
2021/06/19 07:22:56;;;;;;;2.63;2.43;;;;;;;;;;3607799;39;20524;-75
2021/06/19 07:25:22;;;;;;;3.03;2.83;;;;;;;;;;3598532;39;20818;-76
2021/06/19 07:27:53;;;;;;;3.20;2.90;;;;;;;;;;3606699;39;20864;-76
2021/06/19 07:30:20;;;;;;;3.30;2.70;;;;;;;;;;3592092;39;20410;-76
2021/06/19 07:32:46;;;;;;;2.80;2.67;;;;;;;;;;3607813;39;20799;-76
2021/06/19 07:35:12;;;;;;;3.13;2.87;;;;;;;;;;3598577;39;20451;-76
2021/06/19 07:37:38;;;;;;;4.03;2.60;;;;;;;;;;3600617;39;20502;-76
2021/06/19 07:40:05;;;;;;;3.33;3.03;;;;;;;;;;3597833;39;20406;-76
2021/06/19 07:42:32;;;;;;;2.93;2.80;;;;;;;;;;3598620;39;20406;-76
2021/06/19 07:44:58;;;;;;;4.60;2.63;;;;;;;;;;3607516;39;20386;-76
2021/06/19 07:47:24;;;;;;;2.90;2.70;;;;;;;;;;3595997;39;20434;-76
2021/06/19 07:49:51;;;;;;;2.87;2.67;;;;;;;;;;3607256;39;20507;-76
2021/06/19 07:52:17;;;;;;;2.63;2.50;;;;;;;;;;3602077;39;20614;-76
2021/06/19 07:54:43;;;;;;;3.60;2.93;;;;;;;;;;3598619;39;20437;-76
2021/06/19 07:57:09;;;;;;;4.10;2.80;;;;;;;;;;3589551;39;20710;-76
2021/06/19 07:59:36;;;;;;;2.57;2.37;;;;;;;;;;3597522;39;20435;-76
2021/06/19 08:02:03;;;;;;;4.00;3.00;;;;;;;;;;3608009;39;20893;-76
2021/06/19 08:04:29;;;;;;;2.53;2.43;;;;;;;;;;3611205;39;20475;-76
2021/06/19 08:06:55;;;;;;;2.70;2.50;;;;;;;;;;3631138;39;21285;-76
2021/06/19 08:09:21;;;;;;;2.47;2.37;;;;;;;;;;3621123;39;20416;-76
2021/06/19 08:11:47;;;;;;;9.00;3.00;;;;;;;;;;3609982;39;20402;-76
2021/06/19 08:14:14;;;;;;;2.77;2.57;;;;;;;;;;3611425;39;20384;-76
2021/06/19 08:16:40;;;;;;;3.40;2.60;;;;;;;;;;3631803;39;20408;-77
2021/06/19 08:19:06;;;;;;;2.60;2.43;;;;;;;;;;3613525;39;20691;-77
2021/06/19 08:21:32;;;;;;;2.80;2.50;;;;;;;;;;3610321;39;20456;-75
2021/06/19 08:23:58;;;;;;;2.40;2.30;;;;;;;;;;3621207;39;20764;-76
2021/06/19 08:26:24;;;;;;;4.63;2.47;;;;;;;;;;3619340;39;20832;-76
2021/06/19 08:28:50;;;;;;;2.77;2.60;;;;;;;;;;3632434;39;20422;-76
2021/06/19 08:31:16;;;;;;;2.57;2.37;;;;;;;;;;3630000;39;20787;-76
2021/06/19 08:33:42;;;;;;;3.37;2.60;;;;;;;;;;3630118;39;20388;-76
2021/06/19 08:36:08;;;;;;;3.33;2.37;;;;;;;;;;3621380;39;20828;-76
2021/06/19 08:38:34;;;;;;;3.07;2.10;;;;;;;;;;3618112;39;20435;-75
2021/06/19 08:41:01;;;;;;;5.70;2.80;;;;;;;;;;3628991;39;20552;-77
2021/06/19 08:43:27;;;;;;;4.60;3.27;;;;;;;;;;3625418;39;20988;-77
2021/06/19 08:45:54;;;;;;;3.00;2.43;;;;;;;;;;3609253;39;20450;-77
2021/06/19 08:48:21;;;;;;;2.70;2.33;;;;;;;;;;3631623;39;20405;-76
2021/06/19 08:50:48;;;;;;;3.10;2.80;;;;;;;;;;3627875;39;20408;-76
2021/06/19 08:53:16;;;;;;;2.70;2.57;;;;;;;;;;3611185;39;20389;-76
2021/06/19 08:55:42;;;;;;;2.87;2.67;;;;;;;;;;3618656;39;20400;-75
2021/06/19 08:58:08;;;;;;;3.07;2.87;;;;;;;;;;3613354;39;20412;-76
2021/06/19 09:00:34;;;;;;;2.30;2.20;;;;;;;;;;3610427;39;20421;-76
2021/06/19 09:03:00;;;;;;;2.80;2.30;;;;;;;;;;3608759;39;20496;-76
2021/06/19 09:05:28;;;;;;;3.17;2.87;;;;;;;;;;3617851;39;20424;-76
2021/06/19 09:07:55;;;;;;;3.00;2.70;;;;;;;;;;3618803;39;20540;-76
2021/06/19 09:10:24;;;;;;;3.07;2.87;;;;;;;;;;3621055;39;20924;-76
2021/06/19 09:12:58;;;;;;;3.00;2.80;;;;;;;;;;3618435;39;20432;-76
2021/06/19 09:15:24;;;;;;;3.00;2.70;;;;;;;;;;3627600;39;20833;-76
2021/06/19 09:18:02;;;;;;;3.17;2.97;;;;;;;;;;3618943;39;20400;-76
2021/06/19 09:20:36;;;;;;;3.40;2.60;;;;;;;;;;3629428;39;20408;-76
2021/06/19 09:23:03;;;;;;;2.90;2.70;;;;;;;;;;3632655;39;20414;-76
2021/06/19 09:25:30;;;;;;;2.60;2.50;;;;;;;;;;3612195;39;20412;-76
2021/06/19 09:27:57;;;;;;;2.87;2.67;;;;;;;;;;3620025;39;20408;-76
2021/06/19 09:30:23;;;;;;;2.83;2.47;;;;;;;;;;3611751;39;20737;-76
2021/06/19 09:32:53;;;;;;;2.20;2.10;;;;;;;;;;3631294;39;20473;-76
2021/06/19 09:35:25;;;;;;;2.40;2.30;;;;;;;;;;3619650;39;20523;-76
2021/06/19 09:37:52;;;;;;;2.37;2.27;;;;;;;;;;3621428;39;20496;-77
2021/06/19 09:40:24;;;;;;;1.97;1.87;;;;;;;;;;3621959;39;20407;-77
2021/06/19 09:42:50;;;;;;;2.73;2.53;;;;;;;;;;3620682;39;20396;-79
2021/06/19 09:45:25;;;;;;;2.03;1.90;;;;;;;;;;3628074;39;20415;-76
2021/06/19 09:47:52;;;;;;;3.83;2.50;;;;;;;;;;3628789;39;20770;-76
2021/06/19 09:50:19;;;;;;;2.17;2.07;;;;;;;;;;3631808;39;20396;-78
2021/06/19 09:52:45;;;;;;;2.60;2.40;;;;;;;;;;3619513;39;21243;-76
2021/06/19 09:55:13;;;;;;;3.07;2.87;;;;;;;;;;3619331;39;20544;-76
2021/06/19 09:57:46;;;;;;;2.20;2.10;;;;;;;;;;3627266;39;20496;-76
2021/06/19 10:00:14;;;;;;;2.63;2.07;;;;;;;;;;3630434;39;20423;-77
2021/06/19 10:02:41;;;;;;;2.63;2.43;;;;;;;;;;3619847;39;20476;-77
2021/06/19 10:05:08;;;;;;;1.90;1.80;;;;;;;;;;3615369;39;20447;-76
2021/06/19 10:07:35;;;;;;;2.40;2.30;;;;;;;;;;3620876;39;20406;-76
2021/06/19 10:10:02;;;;;;;4.23;2.20;;;;;;;;;;3629523;39;20413;-76
2021/06/19 10:12:29;;;;;;;2.17;2.07;;;;;;;;;;3629992;39;20825;-76
2021/06/19 10:14:59;;;;;;;2.60;2.50;;;;;;;;;;3630614;39;20827;-76
2021/06/19 10:17:28;;;;;;;3.80;2.80;;;;;;;;;;3620527;39;20890;-76
2021/06/19 10:19:55;;;;;;;2.60;2.37;;;;;;;;;;3616717;39;20804;-76
2021/06/19 10:22:31;;;;;;;2.13;2.03;;;;;;;;;;3606873;39;20981;-77
2021/06/19 10:25:01;;;;;;;2.90;2.70;;;;;;;;;;3630409;39;20391;-76
2021/06/19 10:27:30;;;;;;;2.03;1.93;;;;;;;;;;3601350;39;20409;-76
2021/06/19 10:30:00;;;;;;;2.87;2.67;;;;;;;;;;3617851;39;20749;-76
2021/06/19 10:32:46;;;;;;;6.10;2.60;;;;;;;;;;3627954;39;20812;-76
2021/06/19 10:35:15;;;;;;;3.40;2.70;;;;;;;;;;3612781;39;20546;-76
2021/06/19 10:37:42;;;;;;;3.77;2.30;;;;;;;;;;3606183;39;20488;-76
2021/06/19 10:40:20;;;;;;;2.90;2.70;;;;;;;;;;3623598;39;20439;-76
2021/06/19 10:42:47;;;;;;;2.90;2.70;;;;;;;;;;3624696;39;20912;-76
2021/06/19 10:45:22;;;;;;;5.83;2.50;;;;;;;;;;3618834;39;20872;-77
2021/06/19 10:47:59;;;;;;;2.37;2.27;;;;;;;;;;3613551;39;20855;-75
2021/06/19 10:50:25;;;;;;;2.47;2.33;;;;;;;;;;3627350;39;20418;-75
2021/06/19 10:53:05;;;;;;;2.70;2.60;;;;;;;;;;3619764;39;20437;-76
2021/06/19 10:55:31;;;;;;;3.20;3.00;;;;;;;;;;3629334;39;20435;-76
2021/06/19 10:58:00;;;;;;;2.80;2.70;;;;;;;;;;3628563;39;20739;-76
2021/06/19 11:00:30;;;;;;;2.20;2.10;;;;;;;;;;3630708;39;20418;-76
2021/06/19 11:02:58;;;;;;;2.23;2.13;;;;;;;;;;3621337;39;21285;-78
2021/06/19 11:05:42;;;;;;;2.30;2.20;;;;;;;;;;3605452;39;20926;-76
2021/06/19 11:08:09;;;;;;;2.17;2.07;;;;;;;;;;3610995;39;20406;-76
2021/06/19 11:10:48;;;;;;;2.03;1.93;;;;;;;;;;3608915;39;20978;-76
2021/06/19 11:13:29;;;;;;;2.70;2.60;;;;;;;;;;3599755;39;20401;-76
2021/06/19 11:15:55;;;;;;;2.60;2.40;;;;;;;;;;3601533;39;20952;-76
2021/06/19 11:18:40;;;;;;;4.70;2.67;;;;;;;;;;3600682;39;20429;-77
2021/06/19 11:21:10;;;;;;;2.20;2.10;;;;;;;;;;3600932;39;20899;-76
2021/06/19 11:23:55;;;;;;;2.13;2.03;;;;;;;;;;3611493;39;20845;-76
2021/06/19 11:26:40;;;;;;;5.07;2.60;;;;;;;;;;3612029;39;20503;-76
2021/06/19 11:29:26;;;;;;;2.70;2.60;;;;;;;;;;3600505;39;20406;-76
2021/06/19 11:31:52;;;;;;;2.43;2.33;;;;;;;;;;3607776;39;20420;-76
2021/06/19 11:34:37;;;;;;;2.70;2.50;;;;;;;;;;3601515;39;20496;-76
2021/06/19 11:37:04;;;;;;;3.10;2.50;;;;;;;;;;3603351;39;20495;-77
2021/06/19 11:39:34;;;;;;;1.97;1.87;;;;;;;;;;3612130;39;20957;-77
2021/06/19 11:42:00;;;;;;;2.40;2.30;;;;;;;;;;3602430;39;20437;-76
2021/06/19 11:44:32;;;;;;;3.00;2.80;;;;;;;;;;3611673;39;20400;-77
2021/06/19 11:46:59;;;;;;;3.07;2.87;;;;;;;;;;3609507;39;20424;-75
2021/06/19 11:49:26;;;;;;;2.60;2.50;;;;;;;;;;3601572;39;20422;-76
2021/06/19 11:51:53;;;;;;;2.13;2.03;;;;;;;;;;3592503;39;20421;-76
2021/06/19 11:54:19;;;;;;;2.30;2.20;;;;;;;;;;3598926;39;20383;-76
2021/06/19 11:56:45;;;;;;;2.97;2.33;;;;;;;;;;3602472;39;20449;-76
2021/06/19 11:59:14;;;;;;;2.27;2.17;;;;;;;;;;3612500;39;20885;-76
2021/06/19 12:01:41;;;;;;;2.40;2.20;;;;;;;;;;3600999;39;20421;-76
2021/06/19 12:04:12;;;;;;;3.53;2.53;;;;;;;;;;3612788;39;20414;-77
2021/06/19 12:06:49;;;;;;;2.30;2.20;;;;;;;;;;3614440;39;20815;-77
2021/06/19 12:09:17;;;;;;;2.70;2.50;;;;;;;;;;3613704;39;20559;-76
2021/06/19 12:11:44;;;;;;;2.60;2.50;;;;;;;;;;3623074;39;20404;-77
2021/06/19 12:14:17;;;;;;;2.43;2.33;;;;;;;;;;3614144;39;20404;-80
2021/06/19 12:16:44;;;;;;;2.47;2.37;;;;;;;;;;3620250;39;20400;-79
2021/06/19 12:19:11;;;;;;;2.70;2.50;;;;;;;;;;3632125;39;20408;-77
2021/06/19 12:21:38;;;;;;;2.50;2.30;;;;;;;;;;3622621;39;20885;-77
2021/06/19 12:24:18;;;;;;;2.87;2.67;;;;;;;;;;3632632;39;20460;-77
2021/06/19 12:26:56;;;;;;;2.70;2.57;;;;;;;;;;3622829;39;20492;-77
2021/06/19 12:29:41;;;;;;;3.43;2.50;;;;;;;;;;3631571;39;20765;-77
2021/06/19 12:32:26;;;;;;;3.30;2.93;;;;;;;;;;3630862;39;20403;-77
2021/06/19 12:34:53;;;;;;;3.50;3.20;;;;;;;;;;3632275;39;20390;-76
2021/06/19 12:37:46;;;;;;;2.50;2.30;;;;;;;;;;3632907;39;20415;-77
2021/06/19 12:40:13;;;;;;;3.10;2.60;;;;;;;;;;3629707;39;20832;-77
2021/06/19 12:42:58;;;;;;;3.33;2.63;;;;;;;;;;3612002;39;20412;-76
2021/06/19 12:45:25;;;;;;;2.20;2.10;;;;;;;;;;3619211;39;20389;-76
2021/06/19 12:47:52;;;;;;;5.80;5.40;;;;;;;;;;3631280;39;20839;-78
2021/06/19 12:50:30;;;;;;;6.07;5.70;;;;;;;;;;3612582;39;20415;-78
2021/06/19 12:52:57;;;;;;;6.03;5.57;;;;;;;;;;3624160;39;20456;-77
2021/06/19 12:55:23;;;;;;;5.10;4.80;;;;;;;;;;3631741;39;20400;-77
2021/06/19 12:58:10;;;;;;;6.40;6.00;;;;;;;;;;3630743;39;20459;-78
2021/06/19 13:00:37;;;;;;;7.10;6.80;;;;;;;;;;3624152;39;20396;-77
2021/06/19 13:03:04;;;;;;;7.60;7.00;;;;;;;;;;3612220;39;20412;-77
2021/06/19 13:05:30;;;;;;;7.00;6.60;;;;;;;;;;3625527;39;21473;-77
2021/06/19 13:08:09;;;;;;;6.50;6.00;;;;;;;;;;3593738;39;20467;-77
2021/06/19 13:10:36;;;;;;;5.70;5.27;;;;;;;;;;3609430;39;20397;-76
2021/06/19 13:13:02;;;;;;;6.40;6.00;;;;;;;;;;3622811;39;20691;-76
2021/06/19 13:15:28;;;;;;;6.40;6.10;;;;;;;;;;3622898;39;20424;-76
2021/06/19 13:17:54;;;;;;;4.23;3.93;;;;;;;;;;3621815;39;20431;-77
2021/06/19 13:20:24;;;;;;;4.53;4.33;;;;;;;;;;3621304;39;20413;-77
2021/06/19 13:23:02;;;;;;;6.70;6.30;;;;;;;;;;3623194;39;20405;-76
2021/06/19 13:25:47;;;;;;;7.30;6.90;;;;;;;;;;3612454;39;20491;-76
2021/06/19 13:28:14;;;;;;;6.40;6.07;;;;;;;;;;3622882;39;20421;-76
2021/06/19 13:30:40;;;;;;;6.90;6.40;;;;;;;;;;3622087;39;20401;-76
2021/06/19 13:33:06;;;;;;;6.83;6.43;;;;;;;;;;3622489;39;20413;-77
2021/06/19 13:35:46;;;;;;;8.17;7.57;;;;;;;;;;3622227;39;20803;-76
2021/06/19 13:38:12;;;;;;;6.73;6.33;;;;;;;;;;3622174;39;20412;-76
2021/06/19 13:40:38;;;;;;;6.40;6.00;;;;;;;;;;3620435;39;20409;-76
2021/06/19 13:43:04;;;;;;;5.60;5.20;;;;;;;;;;3622267;39;20420;-77
2021/06/19 13:45:30;;;;;;;6.00;5.60;;;;;;;;;;3620451;39;20410;-76
2021/06/19 13:47:57;;;;;;;5.97;5.67;;;;;;;;;;3622941;39;20389;-76
2021/06/19 13:50:23;;;;;;;6.03;5.73;;;;;;;;;;3621776;39;20424;-76
2021/06/19 13:52:49;;;;;;;5.63;5.17;;;;;;;;;;3621640;39;20390;-76
2021/06/19 13:55:19;;;;;;;6.70;6.40;;;;;;;;;;3622077;39;20383;-76
2021/06/19 13:57:45;;;;;;;5.70;5.37;;;;;;;;;;3612599;39;20397;-76
2021/06/19 14:00:11;;;;;;;6.00;5.60;;;;;;;;;;3622253;39;20968;-76
2021/06/19 14:02:37;;;;;;;7.20;6.23;;;;;;;;;;3620825;39;20476;-76
2021/06/19 14:05:03;;;;;;;6.70;6.30;;;;;;;;;;3626310;39;20969;-76
2021/06/19 14:07:30;;;;;;;6.53;6.23;;;;;;;;;;3621803;39;20411;-76
2021/06/19 14:09:56;;;;;;;7.43;6.80;;;;;;;;;;3621573;39;20403;-76
2021/06/19 14:12:22;;;;;;;6.90;6.60;;;;;;;;;;3632420;39;20475;-76
2021/06/19 14:14:49;;;;;;;5.80;5.27;;;;;;;;;;3622960;39;20412;-76
2021/06/19 14:17:16;;;;;;;5.57;5.33;;;;;;;;;;3621822;39;20396;-76
2021/06/19 14:19:42;;;;;;;5.20;4.90;;;;;;;;;;3622531;39;20844;-76
2021/06/19 14:22:08;;;;;;;5.57;5.23;;;;;;;;;;3622682;39;20812;-76
2021/06/19 14:24:34;;;;;;;8.20;5.30;;;;;;;;;;3618859;39;20749;-76
2021/06/19 14:27:12;;;;;;;5.57;5.17;;;;;;;;;;3623220;39;20867;-76
2021/06/19 14:29:38;;;;;;;5.30;5.10;;;;;;;;;;3633424;39;20436;-77
2021/06/19 14:32:05;;;;;;;6.50;6.23;;;;;;;;;;3622587;39;20396;-76
2021/06/19 14:34:32;;;;;;;7.10;6.53;;;;;;;;;;3623765;39;20407;-76
2021/06/19 14:36:58;;;;;;;6.77;6.17;;;;;;;;;;3622363;39;20431;-77
2021/06/19 14:39:24;;;;;;;5.73;5.53;;;;;;;;;;3623845;39;20428;-77
2021/06/19 14:41:51;;;;;;;6.40;6.10;;;;;;;;;;3633731;39;20412;-77
2021/06/19 14:44:18;;;;;;;6.87;6.47;;;;;;;;;;3633745;39;20506;-77
2021/06/19 14:46:45;;;;;;;6.20;5.77;;;;;;;;;;3620516;39;20400;-77
2021/06/19 14:49:11;;;;;;;6.93;6.60;;;;;;;;;;3633607;39;20418;-77